sim
Sign-in with your pilot id or email,
or register
Callsign
Passwort

Schedule Details

Flight Number: OEC87675
Departure: Munich Airport (EDDM) at 02:15 UTC
Arrival: Los Angeles International Airport (KLAX) at 13:05 UTC
Route: MIQ9N MIQ Y102 ALIBU UL604 MAPOX DCT SPY UL602 SUPUR DCT ROKAN DCT NEXUS UP59 BALIX/M086F300 DCT 62N020W 64N030W 65N040W 65N050W DCT CLAVY N896A KAGLY/N0495F300 N896A TEFFO DCT MIBNA DCT VILRA DCT KAIIN SCAG YBR J562 DIK DCT OCS J107 MLF DCT LAS DCT HEC RDEYE2

Weather Information
Getting current METAR information for EDDM 261750Z 25022G32KT 9999 -RA BKN023 OVC042 07/04 Q1001 NOSIG
Getting current METAR information for KLAX 261753Z VRB03KT 8SM SCT016 22/16 A2995 RMK AO2 SLP141 T02220161 10222 20189 50004

Schedule Frequency

Route Map